sensor_id;sensor_type;location;lat;lon;timestamp;P1;durP1;ratioP1;P2;durP2;ratioP2
2622;SDS011;1321;48.690;9.022;2023-06-04T00:02:07;12.30;;;11.50;;
2622;SDS011;1321;48.690;9.022;2023-06-04T00:04:36;11.47;;;10.87;;
2622;SDS011;1321;48.690;9.022;2023-06-04T00:07:06;11.60;;;10.90;;
2622;SDS011;1321;48.690;9.022;2023-06-04T00:09:35;11.70;;;10.90;;
2622;SDS011;1321;48.690;9.022;2023-06-04T00:12:03;12.17;;;11.40;;
2622;SDS011;1321;48.690;9.022;2023-06-04T00:14:32;12.80;;;11.70;;
2622;SDS011;1321;48.690;9.022;2023-06-04T00:17:00;12.17;;;11.47;;
2622;SDS011;1321;48.690;9.022;2023-06-04T00:19:28;12.20;;;11.60;;
2622;SDS011;1321;48.690;9.022;2023-06-04T00:21:56;12.07;;;11.30;;
2622;SDS011;1321;48.690;9.022;2023-06-04T00:24:26;12.50;;;11.70;;
2622;SDS011;1321;48.690;9.022;2023-06-04T00:26:54;12.57;;;11.67;;
2622;SDS011;1321;48.690;9.022;2023-06-04T00:29:22;12.17;;;11.43;;
2622;SDS011;1321;48.690;9.022;2023-06-04T00:31:50;12.60;;;11.87;;
2622;SDS011;1321;48.690;9.022;2023-06-04T00:34:19;12.40;;;11.60;;
2622;SDS011;1321;48.690;9.022;2023-06-04T00:36:47;13.27;;;12.27;;
2622;SDS011;1321;48.690;9.022;2023-06-04T00:39:16;12.20;;;11.60;;
2622;SDS011;1321;48.690;9.022;2023-06-04T00:41:45;12.23;;;11.53;;
2622;SDS011;1321;48.690;9.022;2023-06-04T00:44:14;12.57;;;11.83;;
2622;SDS011;1321;48.690;9.022;2023-06-04T00:46:42;12.67;;;11.87;;
2622;SDS011;1321;48.690;9.022;2023-06-04T00:49:14;12.80;;;12.10;;
2622;SDS011;1321;48.690;9.022;2023-06-04T00:51:42;11.57;;;10.97;;
2622;SDS011;1321;48.690;9.022;2023-06-04T00:54:10;12.80;;;12.10;;
2622;SDS011;1321;48.690;9.022;2023-06-04T00:56:40;13.00;;;12.20;;
2622;SDS011;1321;48.690;9.022;2023-06-04T00:59:09;11.57;;;11.07;;
2622;SDS011;1321;48.690;9.022;2023-06-04T01:01:39;12.70;;;11.63;;
2622;SDS011;1321;48.690;9.022;2023-06-04T01:04:16;11.73;;;11.00;;
2622;SDS011;1321;48.690;9.022;2023-06-04T01:06:49;11.77;;;11.17;;
2622;SDS011;1321;48.690;9.022;2023-06-04T01:09:18;12.57;;;11.87;;
2622;SDS011;1321;48.690;9.022;2023-06-04T01:11:47;12.23;;;11.37;;
2622;SDS011;1321;48.690;9.022;2023-06-04T01:14:17;12.67;;;11.90;;
2622;SDS011;1321;48.690;9.022;2023-06-04T01:16:47;11.90;;;11.30;;
2622;SDS011;1321;48.690;9.022;2023-06-04T01:22:56;11.70;;;11.10;;
2622;SDS011;1321;48.690;9.022;2023-06-04T01:25:37;12.10;;;11.30;;
2622;SDS011;1321;48.690;9.022;2023-06-04T01:28:06;11.37;;;10.83;;
2622;SDS011;1321;48.690;9.022;2023-06-04T01:30:38;12.00;;;11.20;;
2622;SDS011;1321;48.690;9.022;2023-06-04T01:33:12;11.43;;;10.83;;
2622;SDS011;1321;48.690;9.022;2023-06-04T01:35:41;11.90;;;11.10;;
2622;SDS011;1321;48.690;9.022;2023-06-04T01:38:09;12.00;;;11.20;;
2622;SDS011;1321;48.690;9.022;2023-06-04T01:40:40;12.00;;;11.20;;
2622;SDS011;1321;48.690;9.022;2023-06-04T01:43:08;12.47;;;11.70;;
2622;SDS011;1321;48.690;9.022;2023-06-04T01:45:38;11.80;;;11.00;;
2622;SDS011;1321;48.690;9.022;2023-06-04T01:48:06;12.67;;;11.87;;
2622;SDS011;1321;48.690;9.022;2023-06-04T01:50:35;12.53;;;11.73;;
2622;SDS011;1321;48.690;9.022;2023-06-04T01:53:03;12.70;;;12.00;;
2622;SDS011;1321;48.690;9.022;2023-06-04T01:55:31;12.13;;;11.43;;
2622;SDS011;1321;48.690;9.022;2023-06-04T01:58:00;12.43;;;11.47;;
2622;SDS011;1321;48.690;9.022;2023-06-04T02:00:28;11.80;;;11.20;;
2622;SDS011;1321;48.690;9.022;2023-06-04T02:02:58;13.23;;;12.33;;
2622;SDS011;1321;48.690;9.022;2023-06-04T02:05:27;11.60;;;10.90;;
2622;SDS011;1321;48.690;9.022;2023-06-04T02:07:55;11.50;;;10.90;;
2622;SDS011;1321;48.690;9.022;2023-06-04T02:10:24;11.60;;;10.97;;
2622;SDS011;1321;48.690;9.022;2023-06-04T02:12:53;12.53;;;11.63;;
2622;SDS011;1321;48.690;9.022;2023-06-04T02:15:22;11.80;;;11.10;;
2622;SDS011;1321;48.690;9.022;2023-06-04T02:17:53;12.87;;;11.97;;
2622;SDS011;1321;48.690;9.022;2023-06-04T02:20:26;11.27;;;10.37;;
2622;SDS011;1321;48.690;9.022;2023-06-04T02:22:55;11.60;;;10.97;;
2622;SDS011;1321;48.690;9.022;2023-06-04T02:25:23;11.60;;;10.73;;
2622;SDS011;1321;48.690;9.022;2023-06-04T02:27:51;11.60;;;10.67;;
2622;SDS011;1321;48.690;9.022;2023-06-04T02:30:20;12.03;;;11.03;;
2622;SDS011;1321;48.690;9.022;2023-06-04T02:32:48;12.17;;;11.27;;
2622;SDS011;1321;48.690;9.022;2023-06-04T02:35:18;10.67;;;10.17;;
2622;SDS011;1321;48.690;9.022;2023-06-04T02:37:49;10.87;;;10.37;;
2622;SDS011;1321;48.690;9.022;2023-06-04T02:40:17;11.27;;;10.63;;
2622;SDS011;1321;48.690;9.022;2023-06-04T02:42:45;11.77;;;10.77;;
2622;SDS011;1321;48.690;9.022;2023-06-04T02:45:13;11.00;;;10.40;;
2622;SDS011;1321;48.690;9.022;2023-06-04T02:47:41;12.30;;;11.60;;
2622;SDS011;1321;48.690;9.022;2023-06-04T02:50:10;11.90;;;11.30;;
2622;SDS011;1321;48.690;9.022;2023-06-04T02:52:39;11.83;;;11.10;;
2622;SDS011;1321;48.690;9.022;2023-06-04T02:55:11;11.13;;;10.53;;
2622;SDS011;1321;48.690;9.022;2023-06-04T02:57:39;11.03;;;10.33;;
2622;SDS011;1321;48.690;9.022;2023-06-04T03:00:10;10.13;;;9.63;;
2622;SDS011;1321;48.690;9.022;2023-06-04T03:02:40;10.60;;;10.10;;
2622;SDS011;1321;48.690;9.022;2023-06-04T03:05:10;11.10;;;10.43;;
2622;SDS011;1321;48.690;9.022;2023-06-04T03:07:40;13.73;;;11.10;;
2622;SDS011;1321;48.690;9.022;2023-06-04T03:10:13;11.13;;;10.50;;
2622;SDS011;1321;48.690;9.022;2023-06-04T03:12:42;10.30;;;9.70;;
2622;SDS011;1321;48.690;9.022;2023-06-04T03:15:10;10.50;;;9.90;;
2622;SDS011;1321;48.690;9.022;2023-06-04T03:17:38;11.10;;;10.40;;
2622;SDS011;1321;48.690;9.022;2023-06-04T03:20:08;10.23;;;9.53;;
2622;SDS011;1321;48.690;9.022;2023-06-04T03:22:36;10.73;;;10.17;;
2622;SDS011;1321;48.690;9.022;2023-06-04T03:25:05;9.90;;;9.40;;
2622;SDS011;1321;48.690;9.022;2023-06-04T03:27:35;11.07;;;10.37;;
2622;SDS011;1321;48.690;9.022;2023-06-04T03:30:04;10.57;;;10.03;;
2622;SDS011;1321;48.690;9.022;2023-06-04T03:32:33;11.27;;;10.57;;
2622;SDS011;1321;48.690;9.022;2023-06-04T03:35:01;12.50;;;11.60;;
2622;SDS011;1321;48.690;9.022;2023-06-04T03:37:30;11.40;;;10.70;;
2622;SDS011;1321;48.690;9.022;2023-06-04T03:39:59;11.83;;;11.03;;
2622;SDS011;1321;48.690;9.022;2023-06-04T03:42:28;10.80;;;10.20;;
2622;SDS011;1321;48.690;9.022;2023-06-04T03:44:58;11.13;;;10.60;;
2622;SDS011;1321;48.690;9.022;2023-06-04T03:47:26;11.97;;;11.00;;
2622;SDS011;1321;48.690;9.022;2023-06-04T03:49:54;11.33;;;10.63;;
2622;SDS011;1321;48.690;9.022;2023-06-04T03:52:22;11.70;;;10.90;;
2622;SDS011;1321;48.690;9.022;2023-06-04T03:54:50;11.77;;;11.10;;
2622;SDS011;1321;48.690;9.022;2023-06-04T03:57:18;11.47;;;10.67;;
2622;SDS011;1321;48.690;9.022;2023-06-04T03:59:46;11.03;;;10.33;;
2622;SDS011;1321;48.690;9.022;2023-06-04T04:02:16;11.30;;;10.70;;
2622;SDS011;1321;48.690;9.022;2023-06-04T04:04:44;11.97;;;11.20;;
2622;SDS011;1321;48.690;9.022;2023-06-04T04:07:12;12.70;;;11.70;;
2622;SDS011;1321;48.690;9.022;2023-06-04T04:09:41;11.93;;;11.33;;
2622;SDS011;1321;48.690;9.022;2023-06-04T04:12:09;13.37;;;12.57;;
2622;SDS011;1321;48.690;9.022;2023-06-04T04:14:37;12.50;;;11.80;;
2622;SDS011;1321;48.690;9.022;2023-06-04T04:17:05;12.83;;;11.93;;
2622;SDS011;1321;48.690;9.022;2023-06-04T04:19:36;12.37;;;11.67;;
2622;SDS011;1321;48.690;9.022;2023-06-04T04:22:04;12.20;;;11.50;;
2622;SDS011;1321;48.690;9.022;2023-06-04T04:24:32;12.87;;;12.20;;
2622;SDS011;1321;48.690;9.022;2023-06-04T04:27:03;13.27;;;12.40;;
2622;SDS011;1321;48.690;9.022;2023-06-04T04:29:32;12.37;;;11.70;;
2622;SDS011;1321;48.690;9.022;2023-06-04T04:32:01;12.60;;;11.90;;
2622;SDS011;1321;48.690;9.022;2023-06-04T04:34:37;13.50;;;12.50;;
2622;SDS011;1321;48.690;9.022;2023-06-04T04:37:06;12.60;;;11.80;;
2622;SDS011;1321;48.690;9.022;2023-06-04T04:39:35;13.50;;;12.67;;
2622;SDS011;1321;48.690;9.022;2023-06-04T04:42:03;12.27;;;11.67;;
2622;SDS011;1321;48.690;9.022;2023-06-04T04:44:32;13.20;;;12.30;;
2622;SDS011;1321;48.690;9.022;2023-06-04T04:47:00;13.33;;;12.20;;
2622;SDS011;1321;48.690;9.022;2023-06-04T04:49:29;12.60;;;11.90;;
2622;SDS011;1321;48.690;9.022;2023-06-04T04:51:58;12.70;;;12.00;;
2622;SDS011;1321;48.690;9.022;2023-06-04T04:54:26;12.47;;;11.70;;
2622;SDS011;1321;48.690;9.022;2023-06-04T04:56:54;12.73;;;12.07;;
2622;SDS011;1321;48.690;9.022;2023-06-04T04:59:38;12.17;;;11.33;;
2622;SDS011;1321;48.690;9.022;2023-06-04T05:02:07;12.57;;;11.80;;
2622;SDS011;1321;48.690;9.022;2023-06-04T05:04:35;12.27;;;11.50;;
2622;SDS011;1321;48.690;9.022;2023-06-04T05:07:05;11.40;;;10.90;;
2622;SDS011;1321;48.690;9.022;2023-06-04T05:09:33;12.40;;;11.70;;
2622;SDS011;1321;48.690;9.022;2023-06-04T05:12:01;11.43;;;10.93;;
2622;SDS011;1321;48.690;9.022;2023-06-04T05:14:29;11.27;;;10.50;;
2622;SDS011;1321;48.690;9.022;2023-06-04T05:16:58;11.27;;;10.67;;
2622;SDS011;1321;48.690;9.022;2023-06-04T05:19:26;10.37;;;9.77;;
2622;SDS011;1321;48.690;9.022;2023-06-04T05:21:54;10.80;;;10.30;;
2622;SDS011;1321;48.690;9.022;2023-06-04T05:24:23;9.60;;;9.20;;
2622;SDS011;1321;48.690;9.022;2023-06-04T05:26:51;9.67;;;9.27;;
2622;SDS011;1321;48.690;9.022;2023-06-04T05:29:19;10.13;;;9.27;;
2622;SDS011;1321;48.690;9.022;2023-06-04T05:31:47;9.50;;;9.00;;
2622;SDS011;1321;48.690;9.022;2023-06-04T05:34:16;10.03;;;9.43;;
2622;SDS011;1321;48.690;9.022;2023-06-04T05:36:44;9.57;;;8.97;;
2622;SDS011;1321;48.690;9.022;2023-06-04T05:39:12;9.57;;;9.10;;
2622;SDS011;1321;48.690;9.022;2023-06-04T05:41:42;10.03;;;9.53;;
2622;SDS011;1321;48.690;9.022;2023-06-04T05:44:11;9.50;;;9.10;;
2622;SDS011;1321;48.690;9.022;2023-06-04T05:46:39;9.67;;;9.17;;
2622;SDS011;1321;48.690;9.022;2023-06-04T05:49:08;9.27;;;8.90;;
2622;SDS011;1321;48.690;9.022;2023-06-04T05:51:36;9.70;;;9.10;;
2622;SDS011;1321;48.690;9.022;2023-06-04T05:54:04;9.43;;;8.97;;
2622;SDS011;1321;48.690;9.022;2023-06-04T05:56:32;9.20;;;8.80;;
2622;SDS011;1321;48.690;9.022;2023-06-04T05:59:01;10.33;;;9.53;;
2622;SDS011;1321;48.690;9.022;2023-06-04T06:01:29;10.23;;;9.73;;
2622;SDS011;1321;48.690;9.022;2023-06-04T06:03:58;9.50;;;9.10;;
2622;SDS011;1321;48.690;9.022;2023-06-04T06:06:27;9.50;;;9.00;;
2622;SDS011;1321;48.690;9.022;2023-06-04T06:08:55;9.80;;;9.30;;
2622;SDS011;1321;48.690;9.022;2023-06-04T06:11:24;9.13;;;8.70;;
2622;SDS011;1321;48.690;9.022;2023-06-04T06:13:53;9.03;;;8.63;;
2622;SDS011;1321;48.690;9.022;2023-06-04T06:16:22;9.37;;;8.87;;
2622;SDS011;1321;48.690;9.022;2023-06-04T06:18:51;9.37;;;8.80;;
2622;SDS011;1321;48.690;9.022;2023-06-04T06:21:19;8.07;;;7.67;;
2622;SDS011;1321;48.690;9.022;2023-06-04T06:23:47;8.00;;;7.70;;
2622;SDS011;1321;48.690;9.022;2023-06-04T06:26:16;7.87;;;7.57;;
2622;SDS011;1321;48.690;9.022;2023-06-04T06:28:46;8.77;;;8.10;;
2622;SDS011;1321;48.690;9.022;2023-06-04T06:31:15;8.43;;;7.87;;
2622;SDS011;1321;48.690;9.022;2023-06-04T06:33:44;8.20;;;7.70;;
2622;SDS011;1321;48.690;9.022;2023-06-04T06:36:12;7.90;;;7.60;;
2622;SDS011;1321;48.690;9.022;2023-06-04T06:38:44;8.23;;;7.80;;
2622;SDS011;1321;48.690;9.022;2023-06-04T06:41:13;8.47;;;8.17;;
2622;SDS011;1321;48.690;9.022;2023-06-04T06:43:41;7.97;;;7.40;;
2622;SDS011;1321;48.690;9.022;2023-06-04T06:46:09;8.33;;;7.73;;
2622;SDS011;1321;48.690;9.022;2023-06-04T06:48:37;8.10;;;7.60;;
2622;SDS011;1321;48.690;9.022;2023-06-04T06:51:06;8.03;;;7.63;;
2622;SDS011;1321;48.690;9.022;2023-06-04T06:53:35;8.40;;;8.10;;
2622;SDS011;1321;48.690;9.022;2023-06-04T06:56:03;8.33;;;7.93;;
2622;SDS011;1321;48.690;9.022;2023-06-04T06:58:31;9.00;;;8.57;;
2622;SDS011;1321;48.690;9.022;2023-06-04T07:00:59;8.30;;;7.60;;
2622;SDS011;1321;48.690;9.022;2023-06-04T07:03:27;8.20;;;7.60;;
2622;SDS011;1321;48.690;9.022;2023-06-04T07:05:55;7.67;;;7.43;;
2622;SDS011;1321;48.690;9.022;2023-06-04T07:08:25;8.40;;;8.10;;
2622;SDS011;1321;48.690;9.022;2023-06-04T07:10:54;8.50;;;8.10;;
2622;SDS011;1321;48.690;9.022;2023-06-04T07:13:22;8.47;;;7.97;;
2622;SDS011;1321;48.690;9.022;2023-06-04T07:15:50;8.07;;;7.67;;
2622;SDS011;1321;48.690;9.022;2023-06-04T07:18:19;8.20;;;7.90;;
2622;SDS011;1321;48.690;9.022;2023-06-04T07:20:47;7.90;;;7.60;;
2622;SDS011;1321;48.690;9.022;2023-06-04T07:23:15;7.77;;;7.33;;
2622;SDS011;1321;48.690;9.022;2023-06-04T07:25:45;9.03;;;8.43;;
2622;SDS011;1321;48.690;9.022;2023-06-04T07:28:13;8.20;;;7.70;;
2622;SDS011;1321;48.690;9.022;2023-06-04T07:30:41;8.37;;;7.97;;
2622;SDS011;1321;48.690;9.022;2023-06-04T07:33:14;8.60;;;7.90;;
2622;SDS011;1321;48.690;9.022;2023-06-04T07:35:42;7.93;;;7.53;;
2622;SDS011;1321;48.690;9.022;2023-06-04T07:38:10;8.40;;;8.10;;
2622;SDS011;1321;48.690;9.022;2023-06-04T07:40:38;7.97;;;7.30;;
2622;SDS011;1321;48.690;9.022;2023-06-04T07:43:08;8.03;;;7.70;;
2622;SDS011;1321;48.690;9.022;2023-06-04T07:45:36;9.10;;;8.70;;
2622;SDS011;1321;48.690;9.022;2023-06-04T07:48:04;8.47;;;8.03;;
2622;SDS011;1321;48.690;9.022;2023-06-04T07:50:32;8.37;;;7.97;;
2622;SDS011;1321;48.690;9.022;2023-06-04T07:53:04;8.83;;;8.43;;
2622;SDS011;1321;48.690;9.022;2023-06-04T07:55:32;8.93;;;8.63;;
2622;SDS011;1321;48.690;9.022;2023-06-04T07:58:01;9.40;;;8.80;;
2622;SDS011;1321;48.690;9.022;2023-06-04T08:00:33;9.27;;;8.77;;
2622;SDS011;1321;48.690;9.022;2023-06-04T08:03:01;10.13;;;9.63;;
2622;SDS011;1321;48.690;9.022;2023-06-04T08:05:30;9.07;;;8.77;;
2622;SDS011;1321;48.690;9.022;2023-06-04T08:07:58;9.63;;;9.13;;
2622;SDS011;1321;48.690;9.022;2023-06-04T08:10:26;10.33;;;9.77;;
2622;SDS011;1321;48.690;9.022;2023-06-04T08:12:54;10.03;;;9.60;;
2622;SDS011;1321;48.690;9.022;2023-06-04T08:15:23;10.10;;;9.80;;
2622;SDS011;1321;48.690;9.022;2023-06-04T08:17:52;12.00;;;11.10;;
2622;SDS011;1321;48.690;9.022;2023-06-04T08:20:21;10.80;;;10.40;;
2622;SDS011;1321;48.690;9.022;2023-06-04T08:22:52;11.10;;;10.70;;
2622;SDS011;1321;48.690;9.022;2023-06-04T08:25:20;10.13;;;9.77;;
2622;SDS011;1321;48.690;9.022;2023-06-04T08:27:48;10.83;;;10.23;;
2622;SDS011;1321;48.690;9.022;2023-06-04T08:30:17;11.00;;;10.50;;
2622;SDS011;1321;48.690;9.022;2023-06-04T08:32:45;9.73;;;9.33;;
2622;SDS011;1321;48.690;9.022;2023-06-04T08:35:15;10.50;;;10.00;;
2622;SDS011;1321;48.690;9.022;2023-06-04T08:37:43;10.20;;;9.80;;
2622;SDS011;1321;48.690;9.022;2023-06-04T08:40:11;9.90;;;9.50;;
2622;SDS011;1321;48.690;9.022;2023-06-04T08:42:41;9.73;;;9.43;;
2622;SDS011;1321;48.690;9.022;2023-06-04T08:45:11;10.03;;;9.73;;
2622;SDS011;1321;48.690;9.022;2023-06-04T08:47:43;10.27;;;9.87;;
2622;SDS011;1321;48.690;9.022;2023-06-04T08:50:17;10.73;;;10.20;;
2622;SDS011;1321;48.690;9.022;2023-06-04T08:52:46;10.40;;;9.90;;
2622;SDS011;1321;48.690;9.022;2023-06-04T08:55:15;10.17;;;9.87;;
2622;SDS011;1321;48.690;9.022;2023-06-04T08:57:43;10.47;;;9.97;;
2622;SDS011;1321;48.690;9.022;2023-06-04T09:00:13;10.90;;;10.50;;
2622;SDS011;1321;48.690;9.022;2023-06-04T09:02:44;10.77;;;10.37;;
2622;SDS011;1321;48.690;9.022;2023-06-04T09:05:16;10.37;;;9.97;;
2622;SDS011;1321;48.690;9.022;2023-06-04T09:07:50;10.90;;;10.50;;
2622;SDS011;1321;48.690;9.022;2023-06-04T09:10:20;10.73;;;10.33;;
2622;SDS011;1321;48.690;9.022;2023-06-04T09:12:51;9.93;;;9.43;;
2622;SDS011;1321;48.690;9.022;2023-06-04T09:15:20;10.13;;;9.63;;
2622;SDS011;1321;48.690;9.022;2023-06-04T09:17:48;10.23;;;9.83;;
2622;SDS011;1321;48.690;9.022;2023-06-04T09:20:20;10.47;;;9.87;;
2622;SDS011;1321;48.690;9.022;2023-06-04T09:22:49;10.80;;;10.40;;
2622;SDS011;1321;48.690;9.022;2023-06-04T09:25:21;10.10;;;9.73;;
2622;SDS011;1321;48.690;9.022;2023-06-04T09:27:51;10.60;;;10.10;;
2622;SDS011;1321;48.690;9.022;2023-06-04T09:30:21;11.33;;;10.53;;
2622;SDS011;1321;48.690;9.022;2023-06-04T09:32:50;10.50;;;10.10;;
2622;SDS011;1321;48.690;9.022;2023-06-04T09:35:21;11.30;;;10.83;;
2622;SDS011;1321;48.690;9.022;2023-06-04T09:37:53;10.90;;;10.33;;
2622;SDS011;1321;48.690;9.022;2023-06-04T09:40:22;10.77;;;10.37;;
2622;SDS011;1321;48.690;9.022;2023-06-04T09:42:51;10.47;;;10.10;;
2622;SDS011;1321;48.690;9.022;2023-06-04T09:45:28;11.37;;;10.80;;
2622;SDS011;1321;48.690;9.022;2023-06-04T09:47:57;11.60;;;10.80;;
2622;SDS011;1321;48.690;9.022;2023-06-04T09:50:27;10.10;;;9.70;;
2622;SDS011;1321;48.690;9.022;2023-06-04T09:52:58;11.40;;;10.90;;
2622;SDS011;1321;48.690;9.022;2023-06-04T09:55:27;10.63;;;10.03;;
2622;SDS011;1321;48.690;9.022;2023-06-04T09:57:55;11.07;;;10.53;;
2622;SDS011;1321;48.690;9.022;2023-06-04T10:00:27;11.60;;;10.93;;
2622;SDS011;1321;48.690;9.022;2023-06-04T10:02:56;11.80;;;11.30;;
2622;SDS011;1321;48.690;9.022;2023-06-04T10:05:27;12.20;;;11.70;;
2622;SDS011;1321;48.690;9.022;2023-06-04T10:07:59;11.33;;;10.90;;
2622;SDS011;1321;48.690;9.022;2023-06-04T10:10:30;11.47;;;10.90;;
2622;SDS011;1321;48.690;9.022;2023-06-04T10:13:04;11.37;;;10.93;;
2622;SDS011;1321;48.690;9.022;2023-06-04T10:15:37;12.17;;;11.67;;
2622;SDS011;1321;48.690;9.022;2023-06-04T10:18:05;11.30;;;10.90;;
2622;SDS011;1321;48.690;9.022;2023-06-04T10:20:35;12.00;;;11.23;;
2622;SDS011;1321;48.690;9.022;2023-06-04T10:23:04;13.00;;;12.17;;
2622;SDS011;1321;48.690;9.022;2023-06-04T10:25:34;11.67;;;11.17;;
2622;SDS011;1321;48.690;9.022;2023-06-04T10:28:03;11.43;;;11.03;;
2622;SDS011;1321;48.690;9.022;2023-06-04T10:30:32;11.60;;;11.20;;
2622;SDS011;1321;48.690;9.022;2023-06-04T10:33:00;11.10;;;10.70;;
2622;SDS011;1321;48.690;9.022;2023-06-04T10:35:29;11.30;;;11.00;;
2622;SDS011;1321;48.690;9.022;2023-06-04T10:38:07;12.40;;;11.90;;
2622;SDS011;1321;48.690;9.022;2023-06-04T10:40:36;12.10;;;11.50;;
2622;SDS011;1321;48.690;9.022;2023-06-04T10:43:05;11.20;;;10.80;;
2622;SDS011;1321;48.690;9.022;2023-06-04T10:45:34;12.20;;;11.43;;
2622;SDS011;1321;48.690;9.022;2023-06-04T10:48:03;10.73;;;10.13;;
2622;SDS011;1321;48.690;9.022;2023-06-04T10:50:32;11.20;;;10.70;;
2622;SDS011;1321;48.690;9.022;2023-06-04T10:53:01;10.93;;;10.43;;
2622;SDS011;1321;48.690;9.022;2023-06-04T10:55:31;12.07;;;11.47;;
2622;SDS011;1321;48.690;9.022;2023-06-04T10:58:01;11.60;;;11.07;;
2622;SDS011;1321;48.690;9.022;2023-06-04T11:00:36;11.67;;;11.07;;
2622;SDS011;1321;48.690;9.022;2023-06-04T11:03:04;11.60;;;10.90;;
2622;SDS011;1321;48.690;9.022;2023-06-04T11:05:35;11.83;;;11.30;;
2622;SDS011;1321;48.690;9.022;2023-06-04T11:08:04;11.17;;;10.57;;
2622;SDS011;1321;48.690;9.022;2023-06-04T11:10:35;10.90;;;10.50;;
2622;SDS011;1321;48.690;9.022;2023-06-04T11:13:05;10.80;;;10.20;;
2622;SDS011;1321;48.690;9.022;2023-06-04T11:15:40;11.73;;;11.13;;
2622;SDS011;1321;48.690;9.022;2023-06-04T11:18:15;10.93;;;10.47;;
2622;SDS011;1321;48.690;9.022;2023-06-04T11:20:44;11.77;;;10.90;;
2622;SDS011;1321;48.690;9.022;2023-06-04T11:23:13;11.63;;;10.70;;
2622;SDS011;1321;48.690;9.022;2023-06-04T11:25:44;11.33;;;10.73;;
2622;SDS011;1321;48.690;9.022;2023-06-04T11:28:16;12.60;;;11.87;;
2622;SDS011;1321;48.690;9.022;2023-06-04T11:30:55;10.93;;;10.53;;
2622;SDS011;1321;48.690;9.022;2023-06-04T11:33:24;11.47;;;10.87;;
2622;SDS011;1321;48.690;9.022;2023-06-04T11:35:52;10.30;;;9.90;;
2622;SDS011;1321;48.690;9.022;2023-06-04T11:38:20;10.90;;;10.13;;
2622;SDS011;1321;48.690;9.022;2023-06-04T11:40:55;11.80;;;10.90;;
2622;SDS011;1321;48.690;9.022;2023-06-04T11:43:27;11.27;;;10.67;;
2622;SDS011;1321;48.690;9.022;2023-06-04T11:45:55;11.30;;;10.77;;
2622;SDS011;1321;48.690;9.022;2023-06-04T11:48:24;9.90;;;9.50;;
2622;SDS011;1321;48.690;9.022;2023-06-04T11:50:52;10.77;;;10.27;;
2622;SDS011;1321;48.690;9.022;2023-06-04T11:53:21;10.60;;;10.00;;
2622;SDS011;1321;48.690;9.022;2023-06-04T11:55:49;10.17;;;9.77;;
2622;SDS011;1321;48.690;9.022;2023-06-04T11:58:19;9.67;;;9.27;;
2622;SDS011;1321;48.690;9.022;2023-06-04T12:00:47;9.77;;;9.27;;
2622;SDS011;1321;48.690;9.022;2023-06-04T12:03:16;11.10;;;10.23;;
2622;SDS011;1321;48.690;9.022;2023-06-04T12:05:44;10.87;;;10.27;;
2622;SDS011;1321;48.690;9.022;2023-06-04T12:08:12;9.90;;;9.50;;
2622;SDS011;1321;48.690;9.022;2023-06-04T12:10:40;10.07;;;9.57;;
2622;SDS011;1321;48.690;9.022;2023-06-04T12:13:10;10.43;;;10.03;;
2622;SDS011;1321;48.690;9.022;2023-06-04T12:15:39;10.10;;;9.60;;
2622;SDS011;1321;48.690;9.022;2023-06-04T12:18:08;10.70;;;10.10;;
2622;SDS011;1321;48.690;9.022;2023-06-04T12:20:37;10.00;;;9.50;;
2622;SDS011;1321;48.690;9.022;2023-06-04T12:23:06;9.90;;;9.50;;
2622;SDS011;1321;48.690;9.022;2023-06-04T12:25:34;10.90;;;10.40;;
2622;SDS011;1321;48.690;9.022;2023-06-04T12:28:04;10.40;;;10.00;;
2622;SDS011;1321;48.690;9.022;2023-06-04T12:30:35;10.83;;;10.23;;
2622;SDS011;1321;48.690;9.022;2023-06-04T12:33:05;9.80;;;9.40;;
2622;SDS011;1321;48.690;9.022;2023-06-04T12:35:33;9.60;;;9.10;;
2622;SDS011;1321;48.690;9.022;2023-06-04T12:38:03;10.33;;;9.93;;
2622;SDS011;1321;48.690;9.022;2023-06-04T12:40:31;10.37;;;9.40;;
2622;SDS011;1321;48.690;9.022;2023-06-04T12:42:59;9.70;;;9.30;;
2622;SDS011;1321;48.690;9.022;2023-06-04T12:45:28;9.57;;;9.17;;
2622;SDS011;1321;48.690;9.022;2023-06-04T12:47:56;10.33;;;9.83;;
2622;SDS011;1321;48.690;9.022;2023-06-04T12:50:26;9.33;;;8.83;;
2622;SDS011;1321;48.690;9.022;2023-06-04T12:52:54;9.60;;;9.17;;
2622;SDS011;1321;48.690;9.022;2023-06-04T12:55:22;9.80;;;9.40;;
2622;SDS011;1321;48.690;9.022;2023-06-04T12:57:53;10.37;;;9.80;;
2622;SDS011;1321;48.690;9.022;2023-06-04T13:00:21;10.97;;;10.20;;
2622;SDS011;1321;48.690;9.022;2023-06-04T13:02:50;9.23;;;8.47;;
2622;SDS011;1321;48.690;9.022;2023-06-04T13:05:18;9.27;;;8.87;;
2622;SDS011;1321;48.690;9.022;2023-06-04T13:07:47;9.27;;;8.77;;
2622;SDS011;1321;48.690;9.022;2023-06-04T13:10:16;9.37;;;8.97;;
2622;SDS011;1321;48.690;9.022;2023-06-04T13:12:44;10.03;;;9.33;;
2622;SDS011;1321;48.690;9.022;2023-06-04T13:15:12;9.90;;;9.40;;
2622;SDS011;1321;48.690;9.022;2023-06-04T13:17:40;10.73;;;10.13;;
2622;SDS011;1321;48.690;9.022;2023-06-04T13:20:09;9.57;;;9.00;;
2622;SDS011;1321;48.690;9.022;2023-06-04T13:22:37;10.03;;;9.40;;
2622;SDS011;1321;48.690;9.022;2023-06-04T13:25:08;9.53;;;9.03;;
2622;SDS011;1321;48.690;9.022;2023-06-04T13:27:36;9.33;;;9.00;;
2622;SDS011;1321;48.690;9.022;2023-06-04T13:30:05;8.57;;;8.27;;
2622;SDS011;1321;48.690;9.022;2023-06-04T13:32:33;9.77;;;9.37;;
2622;SDS011;1321;48.690;9.022;2023-06-04T13:35:02;8.43;;;7.93;;
2622;SDS011;1321;48.690;9.022;2023-06-04T13:37:30;8.13;;;7.63;;
2622;SDS011;1321;48.690;9.022;2023-06-04T13:39:58;8.30;;;8.00;;
2622;SDS011;1321;48.690;9.022;2023-06-04T13:42:28;8.40;;;7.90;;
2622;SDS011;1321;48.690;9.022;2023-06-04T13:44:56;8.07;;;7.77;;
2622;SDS011;1321;48.690;9.022;2023-06-04T13:47:25;8.17;;;7.77;;
2622;SDS011;1321;48.690;9.022;2023-06-04T13:49:53;8.00;;;7.63;;
2622;SDS011;1321;48.690;9.022;2023-06-04T13:52:21;8.50;;;8.10;;
2622;SDS011;1321;48.690;9.022;2023-06-04T13:54:49;9.13;;;8.63;;
2622;SDS011;1321;48.690;9.022;2023-06-04T13:57:17;8.80;;;8.40;;
2622;SDS011;1321;48.690;9.022;2023-06-04T13:59:48;9.67;;;9.07;;
2622;SDS011;1321;48.690;9.022;2023-06-04T14:02:16;8.83;;;8.53;;
2622;SDS011;1321;48.690;9.022;2023-06-04T14:04:44;9.50;;;9.00;;
2622;SDS011;1321;48.690;9.022;2023-06-04T14:07:12;8.63;;;8.33;;
2622;SDS011;1321;48.690;9.022;2023-06-04T14:09:40;9.93;;;9.33;;
2622;SDS011;1321;48.690;9.022;2023-06-04T14:12:09;8.47;;;8.07;;
2622;SDS011;1321;48.690;9.022;2023-06-04T14:14:37;8.97;;;8.47;;
2622;SDS011;1321;48.690;9.022;2023-06-04T14:17:06;8.83;;;8.43;;
2622;SDS011;1321;48.690;9.022;2023-06-04T14:19:35;8.07;;;7.77;;
2622;SDS011;1321;48.690;9.022;2023-06-04T14:22:03;7.67;;;7.37;;
2622;SDS011;1321;48.690;9.022;2023-06-04T14:24:31;8.07;;;7.77;;
2622;SDS011;1321;48.690;9.022;2023-06-04T14:26:59;8.10;;;7.70;;
2622;SDS011;1321;48.690;9.022;2023-06-04T14:29:28;8.20;;;7.90;;
2622;SDS011;1321;48.690;9.022;2023-06-04T14:31:56;7.93;;;7.60;;
2622;SDS011;1321;48.690;9.022;2023-06-04T14:34:25;8.43;;;8.00;;
2622;SDS011;1321;48.690;9.022;2023-06-04T14:36:53;7.83;;;7.47;;
2622;SDS011;1321;48.690;9.022;2023-06-04T14:39:23;7.63;;;7.37;;
2622;SDS011;1321;48.690;9.022;2023-06-04T14:41:52;7.67;;;7.27;;
2622;SDS011;1321;48.690;9.022;2023-06-04T14:44:20;8.20;;;7.50;;
2622;SDS011;1321;48.690;9.022;2023-06-04T14:46:48;7.73;;;7.43;;
2622;SDS011;1321;48.690;9.022;2023-06-04T14:49:18;8.03;;;7.50;;
2622;SDS011;1321;48.690;9.022;2023-06-04T14:51:47;8.13;;;7.63;;
2622;SDS011;1321;48.690;9.022;2023-06-04T14:54:15;8.10;;;7.73;;
2622;SDS011;1321;48.690;9.022;2023-06-04T14:56:43;8.13;;;7.83;;
2622;SDS011;1321;48.690;9.022;2023-06-04T14:59:11;7.63;;;7.30;;
2622;SDS011;1321;48.690;9.022;2023-06-04T15:01:39;7.43;;;7.03;;
2622;SDS011;1321;48.690;9.022;2023-06-04T15:04:09;7.33;;;6.97;;
2622;SDS011;1321;48.690;9.022;2023-06-04T15:06:38;7.87;;;7.47;;
2622;SDS011;1321;48.690;9.022;2023-06-04T15:09:07;7.13;;;6.83;;
2622;SDS011;1321;48.690;9.022;2023-06-04T15:11:35;6.93;;;6.60;;
2622;SDS011;1321;48.690;9.022;2023-06-04T15:14:03;7.80;;;7.40;;